sensor_id;sensor_type;location;lat;lon;timestamp;P1;durP1;ratioP1;P2;durP2;ratioP2
14306;SDS011;7237;49.500;11.400;2024-01-15T00:00:31;24.70;;;12.60;;
14306;SDS011;7237;49.500;11.400;2024-01-15T00:02:58;24.60;;;13.40;;
14306;SDS011;7237;49.500;11.400;2024-01-15T00:05:25;24.73;;;13.07;;
14306;SDS011;7237;49.500;11.400;2024-01-15T00:07:52;22.27;;;13.00;;
14306;SDS011;7237;49.500;11.400;2024-01-15T00:10:20;25.13;;;12.97;;
14306;SDS011;7237;49.500;11.400;2024-01-15T00:12:47;23.10;;;13.77;;
14306;SDS011;7237;49.500;11.400;2024-01-15T00:15:14;24.20;;;12.60;;
14306;SDS011;7237;49.500;11.400;2024-01-15T00:17:42;26.93;;;12.97;;
14306;SDS011;7237;49.500;11.400;2024-01-15T00:20:09;27.40;;;13.37;;
14306;SDS011;7237;49.500;11.400;2024-01-15T00:22:36;20.67;;;12.40;;
14306;SDS011;7237;49.500;11.400;2024-01-15T00:25:03;22.07;;;12.80;;
14306;SDS011;7237;49.500;11.400;2024-01-15T00:27:32;21.17;;;12.83;;
14306;SDS011;7237;49.500;11.400;2024-01-15T00:29:59;23.67;;;13.37;;
14306;SDS011;7237;49.500;11.400;2024-01-15T00:32:26;28.80;;;13.37;;
14306;SDS011;7237;49.500;11.400;2024-01-15T00:34:53;26.23;;;14.17;;
14306;SDS011;7237;49.500;11.400;2024-01-15T00:37:20;26.47;;;13.90;;
14306;SDS011;7237;49.500;11.400;2024-01-15T00:39:47;23.67;;;12.83;;
14306;SDS011;7237;49.500;11.400;2024-01-15T00:42:14;27.67;;;14.10;;
14306;SDS011;7237;49.500;11.400;2024-01-15T00:44:43;22.33;;;11.73;;
14306;SDS011;7237;49.500;11.400;2024-01-15T00:47:10;23.67;;;12.37;;
14306;SDS011;7237;49.500;11.400;2024-01-15T00:49:37;22.40;;;12.43;;
14306;SDS011;7237;49.500;11.400;2024-01-15T00:52:04;23.03;;;12.77;;
14306;SDS011;7237;49.500;11.400;2024-01-15T00:54:32;23.47;;;12.37;;
14306;SDS011;7237;49.500;11.400;2024-01-15T00:56:59;24.90;;;11.90;;
14306;SDS011;7237;49.500;11.400;2024-01-15T00:59:26;26.57;;;12.97;;
14306;SDS011;7237;49.500;11.400;2024-01-15T01:01:54;21.87;;;11.93;;
14306;SDS011;7237;49.500;11.400;2024-01-15T01:04:21;28.43;;;13.37;;
14306;SDS011;7237;49.500;11.400;2024-01-15T01:06:48;23.57;;;12.40;;
14306;SDS011;7237;49.500;11.400;2024-01-15T01:09:15;23.13;;;12.10;;
14306;SDS011;7237;49.500;11.400;2024-01-15T01:11:42;26.67;;;12.73;;
14306;SDS011;7237;49.500;11.400;2024-01-15T01:14:10;21.43;;;11.77;;
14306;SDS011;7237;49.500;11.400;2024-01-15T01:16:37;22.93;;;12.63;;
14306;SDS011;7237;49.500;11.400;2024-01-15T01:19:06;23.43;;;12.20;;
14306;SDS011;7237;49.500;11.400;2024-01-15T01:21:33;20.80;;;11.83;;
14306;SDS011;7237;49.500;11.400;2024-01-15T01:24:00;20.90;;;11.90;;
14306;SDS011;7237;49.500;11.400;2024-01-15T01:26:27;20.33;;;12.03;;
14306;SDS011;7237;49.500;11.400;2024-01-15T01:28:54;20.50;;;11.63;;
14306;SDS011;7237;49.500;11.400;2024-01-15T01:31:21;21.47;;;11.73;;
14306;SDS011;7237;49.500;11.400;2024-01-15T01:33:48;24.70;;;12.60;;
14306;SDS011;7237;49.500;11.400;2024-01-15T01:36:16;22.40;;;12.07;;
14306;SDS011;7237;49.500;11.400;2024-01-15T01:38:43;21.30;;;11.77;;
14306;SDS011;7237;49.500;11.400;2024-01-15T01:41:10;25.57;;;13.40;;
14306;SDS011;7237;49.500;11.400;2024-01-15T01:43:37;19.40;;;12.10;;
14306;SDS011;7237;49.500;11.400;2024-01-15T01:46:05;21.80;;;12.50;;
14306;SDS011;7237;49.500;11.400;2024-01-15T01:48:32;21.97;;;11.97;;
14306;SDS011;7237;49.500;11.400;2024-01-15T01:51:00;20.10;;;11.73;;
14306;SDS011;7237;49.500;11.400;2024-01-15T01:53:30;20.40;;;12.47;;
14306;SDS011;7237;49.500;11.400;2024-01-15T01:55:58;20.83;;;11.83;;
14306;SDS011;7237;49.500;11.400;2024-01-15T01:58:26;19.80;;;11.80;;
14306;SDS011;7237;49.500;11.400;2024-01-15T02:00:54;20.77;;;11.40;;
14306;SDS011;7237;49.500;11.400;2024-01-15T02:03:21;19.90;;;11.87;;
14306;SDS011;7237;49.500;11.400;2024-01-15T02:05:48;20.40;;;10.67;;
14306;SDS011;7237;49.500;11.400;2024-01-15T02:08:15;22.17;;;12.23;;
14306;SDS011;7237;49.500;11.400;2024-01-15T02:10:44;19.93;;;12.43;;
14306;SDS011;7237;49.500;11.400;2024-01-15T02:13:11;21.53;;;13.13;;
14306;SDS011;7237;49.500;11.400;2024-01-15T02:15:38;23.43;;;11.60;;
14306;SDS011;7237;49.500;11.400;2024-01-15T02:18:06;19.60;;;11.13;;
14306;SDS011;7237;49.500;11.400;2024-01-15T02:20:33;20.70;;;10.73;;
14306;SDS011;7237;49.500;11.400;2024-01-15T02:23:03;21.00;;;11.87;;
14306;SDS011;7237;49.500;11.400;2024-01-15T02:25:30;19.23;;;11.43;;
14306;SDS011;7237;49.500;11.400;2024-01-15T02:27:57;21.93;;;11.93;;
14306;SDS011;7237;49.500;11.400;2024-01-15T02:30:25;22.07;;;12.20;;
14306;SDS011;7237;49.500;11.400;2024-01-15T02:32:52;21.93;;;11.80;;
14306;SDS011;7237;49.500;11.400;2024-01-15T02:35:19;22.10;;;11.97;;
14306;SDS011;7237;49.500;11.400;2024-01-15T02:37:46;21.43;;;12.80;;
14306;SDS011;7237;49.500;11.400;2024-01-15T02:40:15;21.63;;;11.67;;
14306;SDS011;7237;49.500;11.400;2024-01-15T02:42:42;22.70;;;11.87;;
14306;SDS011;7237;49.500;11.400;2024-01-15T02:45:09;22.23;;;12.13;;
14306;SDS011;7237;49.500;11.400;2024-01-15T02:47:36;22.20;;;11.80;;
14306;SDS011;7237;49.500;11.400;2024-01-15T02:50:03;23.83;;;11.90;;
14306;SDS011;7237;49.500;11.400;2024-01-15T02:52:30;20.57;;;12.70;;
14306;SDS011;7237;49.500;11.400;2024-01-15T02:54:57;21.23;;;12.17;;
14306;SDS011;7237;49.500;11.400;2024-01-15T02:57:26;23.37;;;12.93;;
14306;SDS011;7237;49.500;11.400;2024-01-15T02:59:53;20.00;;;12.23;;
14306;SDS011;7237;49.500;11.400;2024-01-15T03:02:20;17.87;;;11.03;;
14306;SDS011;7237;49.500;11.400;2024-01-15T03:04:47;22.13;;;12.57;;
14306;SDS011;7237;49.500;11.400;2024-01-15T03:07:14;17.57;;;10.37;;
14306;SDS011;7237;49.500;11.400;2024-01-15T03:09:41;18.23;;;11.83;;
14306;SDS011;7237;49.500;11.400;2024-01-15T03:12:08;17.77;;;10.50;;
14306;SDS011;7237;49.500;11.400;2024-01-15T03:14:37;18.80;;;11.47;;
14306;SDS011;7237;49.500;11.400;2024-01-15T03:17:04;25.13;;;13.10;;
14306;SDS011;7237;49.500;11.400;2024-01-15T03:19:34;22.03;;;12.13;;
14306;SDS011;7237;49.500;11.400;2024-01-15T03:22:01;22.83;;;11.70;;
14306;SDS011;7237;49.500;11.400;2024-01-15T03:24:28;18.73;;;10.90;;
14306;SDS011;7237;49.500;11.400;2024-01-15T03:26:55;22.00;;;10.90;;
14306;SDS011;7237;49.500;11.400;2024-01-15T03:29:22;20.50;;;11.20;;
14306;SDS011;7237;49.500;11.400;2024-01-15T03:31:50;19.17;;;11.60;;
14306;SDS011;7237;49.500;11.400;2024-01-15T03:34:17;20.10;;;10.93;;
14306;SDS011;7237;49.500;11.400;2024-01-15T03:36:44;17.97;;;10.43;;
14306;SDS011;7237;49.500;11.400;2024-01-15T03:39:11;17.17;;;10.03;;
14306;SDS011;7237;49.500;11.400;2024-01-15T03:41:38;17.33;;;9.37;;
14306;SDS011;7237;49.500;11.400;2024-01-15T03:44:05;15.10;;;9.43;;
14306;SDS011;7237;49.500;11.400;2024-01-15T03:46:32;20.33;;;10.17;;
14306;SDS011;7237;49.500;11.400;2024-01-15T03:49:01;18.67;;;10.53;;
14306;SDS011;7237;49.500;11.400;2024-01-15T03:51:28;17.83;;;9.63;;
14306;SDS011;7237;49.500;11.400;2024-01-15T03:53:55;19.30;;;10.13;;
14306;SDS011;7237;49.500;11.400;2024-01-15T03:56:22;16.30;;;10.57;;
14306;SDS011;7237;49.500;11.400;2024-01-15T03:58:49;17.47;;;9.47;;
14306;SDS011;7237;49.500;11.400;2024-01-15T04:01:16;16.93;;;9.90;;
14306;SDS011;7237;49.500;11.400;2024-01-15T04:03:43;15.03;;;8.73;;
14306;SDS011;7237;49.500;11.400;2024-01-15T04:06:12;13.47;;;8.20;;
14306;SDS011;7237;49.500;11.400;2024-01-15T04:08:39;14.47;;;9.47;;
14306;SDS011;7237;49.500;11.400;2024-01-15T04:11:06;17.43;;;8.60;;
14306;SDS011;7237;49.500;11.400;2024-01-15T04:13:33;15.17;;;8.30;;
14306;SDS011;7237;49.500;11.400;2024-01-15T04:16:00;16.27;;;9.13;;
14306;SDS011;7237;49.500;11.400;2024-01-15T04:18:28;14.50;;;8.50;;
14306;SDS011;7237;49.500;11.400;2024-01-15T04:20:55;13.40;;;7.93;;
14306;SDS011;7237;49.500;11.400;2024-01-15T04:23:23;16.10;;;8.87;;
14306;SDS011;7237;49.500;11.400;2024-01-15T04:25:50;15.93;;;8.47;;
14306;SDS011;7237;49.500;11.400;2024-01-15T04:28:17;10.80;;;7.00;;
14306;SDS011;7237;49.500;11.400;2024-01-15T04:30:45;12.33;;;8.17;;
14306;SDS011;7237;49.500;11.400;2024-01-15T04:33:12;13.87;;;7.90;;
14306;SDS011;7237;49.500;11.400;2024-01-15T04:35:39;13.17;;;8.00;;
14306;SDS011;7237;49.500;11.400;2024-01-15T04:38:06;14.33;;;8.57;;
14306;SDS011;7237;49.500;11.400;2024-01-15T04:40:34;16.10;;;8.57;;
14306;SDS011;7237;49.500;11.400;2024-01-15T04:43:01;12.13;;;8.00;;
14306;SDS011;7237;49.500;11.400;2024-01-15T04:45:28;13.93;;;7.63;;
14306;SDS011;7237;49.500;11.400;2024-01-15T04:47:55;13.80;;;7.73;;
14306;SDS011;7237;49.500;11.400;2024-01-15T04:50:23;15.67;;;7.90;;
14306;SDS011;7237;49.500;11.400;2024-01-15T04:52:50;12.57;;;7.40;;
14306;SDS011;7237;49.500;11.400;2024-01-15T04:55:17;12.23;;;7.60;;
14306;SDS011;7237;49.500;11.400;2024-01-15T04:57:45;13.73;;;8.30;;
14306;SDS011;7237;49.500;11.400;2024-01-15T05:00:12;11.43;;;7.30;;
14306;SDS011;7237;49.500;11.400;2024-01-15T05:02:40;15.40;;;7.20;;
14306;SDS011;7237;49.500;11.400;2024-01-15T05:05:07;13.30;;;7.37;;
14306;SDS011;7237;49.500;11.400;2024-01-15T05:07:34;15.47;;;7.97;;
14306;SDS011;7237;49.500;11.400;2024-01-15T05:10:01;12.73;;;7.77;;
14306;SDS011;7237;49.500;11.400;2024-01-15T05:12:29;14.30;;;8.10;;
14306;SDS011;7237;49.500;11.400;2024-01-15T05:14:57;12.97;;;7.30;;
14306;SDS011;7237;49.500;11.400;2024-01-15T05:17:24;11.63;;;7.00;;
14306;SDS011;7237;49.500;11.400;2024-01-15T05:19:51;12.80;;;7.90;;
14306;SDS011;7237;49.500;11.400;2024-01-15T05:22:18;13.13;;;7.67;;
14306;SDS011;7237;49.500;11.400;2024-01-15T05:24:46;12.50;;;7.80;;
14306;SDS011;7237;49.500;11.400;2024-01-15T05:27:13;11.73;;;7.60;;
14306;SDS011;7237;49.500;11.400;2024-01-15T05:29:41;11.50;;;7.13;;
14306;SDS011;7237;49.500;11.400;2024-01-15T05:32:09;14.73;;;7.93;;
14306;SDS011;7237;49.500;11.400;2024-01-15T05:34:36;12.87;;;8.03;;
14306;SDS011;7237;49.500;11.400;2024-01-15T05:37:03;13.23;;;7.50;;
14306;SDS011;7237;49.500;11.400;2024-01-15T05:39:30;17.40;;;7.87;;
14306;SDS011;7237;49.500;11.400;2024-01-15T05:41:58;12.93;;;8.20;;
14306;SDS011;7237;49.500;11.400;2024-01-15T05:44:25;12.80;;;7.90;;
14306;SDS011;7237;49.500;11.400;2024-01-15T05:46:53;10.17;;;6.80;;
14306;SDS011;7237;49.500;11.400;2024-01-15T05:49:21;11.67;;;6.90;;
14306;SDS011;7237;49.500;11.400;2024-01-15T05:51:48;11.77;;;7.97;;
14306;SDS011;7237;49.500;11.400;2024-01-15T05:54:17;12.23;;;7.03;;
14306;SDS011;7237;49.500;11.400;2024-01-15T05:56:44;12.93;;;7.80;;
14306;SDS011;7237;49.500;11.400;2024-01-15T05:59:11;11.70;;;7.93;;
14306;SDS011;7237;49.500;11.400;2024-01-15T06:01:38;10.77;;;7.30;;
14306;SDS011;7237;49.500;11.400;2024-01-15T06:04:05;12.43;;;7.70;;
14306;SDS011;7237;49.500;11.400;2024-01-15T06:06:33;12.77;;;7.83;;
14306;SDS011;7237;49.500;11.400;2024-01-15T06:09:00;12.80;;;7.00;;
14306;SDS011;7237;49.500;11.400;2024-01-15T06:11:30;12.37;;;7.53;;
14306;SDS011;7237;49.500;11.400;2024-01-15T06:13:57;12.80;;;6.80;;
14306;SDS011;7237;49.500;11.400;2024-01-15T06:16:25;12.37;;;7.70;;
14306;SDS011;7237;49.500;11.400;2024-01-15T06:18:52;14.90;;;8.67;;
14306;SDS011;7237;49.500;11.400;2024-01-15T06:21:19;14.23;;;8.27;;
14306;SDS011;7237;49.500;11.400;2024-01-15T06:23:48;15.03;;;8.23;;
14306;SDS011;7237;49.500;11.400;2024-01-15T06:26:15;13.47;;;8.03;;
14306;SDS011;7237;49.500;11.400;2024-01-15T06:28:42;13.40;;;7.37;;
14306;SDS011;7237;49.500;11.400;2024-01-15T06:31:09;10.73;;;6.93;;
14306;SDS011;7237;49.500;11.400;2024-01-15T06:33:36;13.40;;;7.80;;
14306;SDS011;7237;49.500;11.400;2024-01-15T06:36:03;12.33;;;7.60;;
14306;SDS011;7237;49.500;11.400;2024-01-15T06:38:31;11.13;;;6.90;;
14306;SDS011;7237;49.500;11.400;2024-01-15T06:40:59;12.20;;;6.83;;
14306;SDS011;7237;49.500;11.400;2024-01-15T06:43:27;11.53;;;6.60;;
14306;SDS011;7237;49.500;11.400;2024-01-15T06:45:54;12.40;;;6.97;;
14306;SDS011;7237;49.500;11.400;2024-01-15T06:48:21;10.83;;;7.00;;
14306;SDS011;7237;49.500;11.400;2024-01-15T06:50:48;11.63;;;6.80;;
14306;SDS011;7237;49.500;11.400;2024-01-15T06:53:15;12.03;;;7.17;;
14306;SDS011;7237;49.500;11.400;2024-01-15T06:55:42;13.20;;;7.83;;
14306;SDS011;7237;49.500;11.400;2024-01-15T06:58:10;11.70;;;6.70;;
14306;SDS011;7237;49.500;11.400;2024-01-15T07:00:37;11.13;;;6.63;;
14306;SDS011;7237;49.500;11.400;2024-01-15T07:03:05;12.70;;;7.37;;
14306;SDS011;7237;49.500;11.400;2024-01-15T07:05:32;10.17;;;6.67;;
14306;SDS011;7237;49.500;11.400;2024-01-15T07:07:59;11.87;;;7.00;;
14306;SDS011;7237;49.500;11.400;2024-01-15T07:10:26;11.93;;;6.83;;
14306;SDS011;7237;49.500;11.400;2024-01-15T07:12:53;10.97;;;6.43;;
14306;SDS011;7237;49.500;11.400;2024-01-15T07:15:22;12.00;;;6.57;;
14306;SDS011;7237;49.500;11.400;2024-01-15T07:17:49;10.03;;;6.73;;
14306;SDS011;7237;49.500;11.400;2024-01-15T07:20:16;13.40;;;8.33;;
14306;SDS011;7237;49.500;11.400;2024-01-15T07:22:44;10.20;;;6.73;;
14306;SDS011;7237;49.500;11.400;2024-01-15T07:25:11;10.00;;;6.90;;
14306;SDS011;7237;49.500;11.400;2024-01-15T07:27:38;10.63;;;7.10;;
14306;SDS011;7237;49.500;11.400;2024-01-15T07:30:09;11.97;;;7.30;;
14306;SDS011;7237;49.500;11.400;2024-01-15T07:32:38;13.00;;;7.57;;
14306;SDS011;7237;49.500;11.400;2024-01-15T07:35:05;11.07;;;6.47;;
14306;SDS011;7237;49.500;11.400;2024-01-15T07:37:32;10.50;;;6.47;;
14306;SDS011;7237;49.500;11.400;2024-01-15T07:40:00;10.70;;;7.33;;
14306;SDS011;7237;49.500;11.400;2024-01-15T07:42:29;12.80;;;7.13;;
14306;SDS011;7237;49.500;11.400;2024-01-15T07:44:56;12.20;;;7.47;;
14306;SDS011;7237;49.500;11.400;2024-01-15T07:47:23;10.73;;;6.33;;
14306;SDS011;7237;49.500;11.400;2024-01-15T07:49:52;11.17;;;6.63;;
14306;SDS011;7237;49.500;11.400;2024-01-15T07:52:19;9.90;;;6.50;;
14306;SDS011;7237;49.500;11.400;2024-01-15T07:54:46;13.40;;;6.87;;
14306;SDS011;7237;49.500;11.400;2024-01-15T07:57:13;10.60;;;6.17;;
14306;SDS011;7237;49.500;11.400;2024-01-15T07:59:40;11.90;;;7.03;;
14306;SDS011;7237;49.500;11.400;2024-01-15T08:02:07;13.83;;;8.20;;
14306;SDS011;7237;49.500;11.400;2024-01-15T08:04:36;9.60;;;6.67;;
14306;SDS011;7237;49.500;11.400;2024-01-15T08:07:04;12.90;;;7.03;;
14306;SDS011;7237;49.500;11.400;2024-01-15T08:09:32;10.77;;;6.83;;
14306;SDS011;7237;49.500;11.400;2024-01-15T08:11:59;8.87;;;6.47;;
14306;SDS011;7237;49.500;11.400;2024-01-15T08:14:26;9.13;;;6.20;;
14306;SDS011;7237;49.500;11.400;2024-01-15T08:16:53;12.43;;;6.57;;
14306;SDS011;7237;49.500;11.400;2024-01-15T08:19:20;9.63;;;6.50;;
14306;SDS011;7237;49.500;11.400;2024-01-15T08:21:47;9.30;;;6.13;;
14306;SDS011;7237;49.500;11.400;2024-01-15T08:24:15;12.33;;;7.27;;
14306;SDS011;7237;49.500;11.400;2024-01-15T08:26:42;10.50;;;6.97;;
14306;SDS011;7237;49.500;11.400;2024-01-15T08:29:10;10.53;;;6.93;;
14306;SDS011;7237;49.500;11.400;2024-01-15T08:31:37;10.20;;;6.80;;
14306;SDS011;7237;49.500;11.400;2024-01-15T08:34:04;11.00;;;6.70;;
14306;SDS011;7237;49.500;11.400;2024-01-15T08:36:31;9.70;;;6.63;;
14306;SDS011;7237;49.500;11.400;2024-01-15T08:39:00;10.63;;;6.77;;
14306;SDS011;7237;49.500;11.400;2024-01-15T08:41:30;11.67;;;6.97;;
14306;SDS011;7237;49.500;11.400;2024-01-15T08:43:57;9.60;;;6.47;;
14306;SDS011;7237;49.500;11.400;2024-01-15T08:46:24;11.53;;;6.83;;
14306;SDS011;7237;49.500;11.400;2024-01-15T08:48:51;9.43;;;6.60;;
14306;SDS011;7237;49.500;11.400;2024-01-15T08:51:18;10.70;;;6.63;;
14306;SDS011;7237;49.500;11.400;2024-01-15T08:53:45;11.70;;;6.47;;
14306;SDS011;7237;49.500;11.400;2024-01-15T08:56:12;9.93;;;6.30;;
14306;SDS011;7237;49.500;11.400;2024-01-15T08:58:41;10.03;;;6.67;;
14306;SDS011;7237;49.500;11.400;2024-01-15T09:01:08;11.23;;;7.27;;
14306;SDS011;7237;49.500;11.400;2024-01-15T09:03:35;10.37;;;6.50;;
14306;SDS011;7237;49.500;11.400;2024-01-15T09:06:02;10.27;;;6.97;;
14306;SDS011;7237;49.500;11.400;2024-01-15T09:08:29;9.63;;;6.30;;
14306;SDS011;7237;49.500;11.400;2024-01-15T09:10:56;10.37;;;6.27;;
14306;SDS011;7237;49.500;11.400;2024-01-15T09:13:23;9.70;;;6.73;;
14306;SDS011;7237;49.500;11.400;2024-01-15T09:15:52;8.53;;;6.47;;
14306;SDS011;7237;49.500;11.400;2024-01-15T09:18:19;10.87;;;5.90;;
14306;SDS011;7237;49.500;11.400;2024-01-15T09:20:46;11.37;;;7.33;;
14306;SDS011;7237;49.500;11.400;2024-01-15T09:23:13;9.70;;;6.10;;
14306;SDS011;7237;49.500;11.400;2024-01-15T09:25:40;11.00;;;6.73;;
14306;SDS011;7237;49.500;11.400;2024-01-15T09:28:07;9.80;;;6.70;;
14306;SDS011;7237;49.500;11.400;2024-01-15T09:30:34;8.63;;;6.30;;
14306;SDS011;7237;49.500;11.400;2024-01-15T09:33:03;11.03;;;6.93;;
14306;SDS011;7237;49.500;11.400;2024-01-15T09:35:30;10.17;;;7.37;;
14306;SDS011;7237;49.500;11.400;2024-01-15T09:37:57;10.23;;;7.23;;
14306;SDS011;7237;49.500;11.400;2024-01-15T09:40:25;10.63;;;6.97;;
14306;SDS011;7237;49.500;11.400;2024-01-15T09:42:58;10.60;;;7.63;;
14306;SDS011;7237;49.500;11.400;2024-01-15T09:45:25;11.93;;;6.83;;
14306;SDS011;7237;49.500;11.400;2024-01-15T09:47:52;11.00;;;6.73;;
14306;SDS011;7237;49.500;11.400;2024-01-15T09:50:21;9.57;;;6.87;;
14306;SDS011;7237;49.500;11.400;2024-01-15T09:52:48;8.23;;;5.83;;
14306;SDS011;7237;49.500;11.400;2024-01-15T09:55:17;10.63;;;6.70;;
14306;SDS011;7237;49.500;11.400;2024-01-15T09:57:44;11.30;;;6.23;;
14306;SDS011;7237;49.500;11.400;2024-01-15T10:00:12;7.77;;;6.27;;
14306;SDS011;7237;49.500;11.400;2024-01-15T10:02:39;7.83;;;6.20;;
14306;SDS011;7237;49.500;11.400;2024-01-15T10:05:07;9.13;;;6.57;;
14306;SDS011;7237;49.500;11.400;2024-01-15T10:07:35;9.13;;;5.90;;
14306;SDS011;7237;49.500;11.400;2024-01-15T10:10:03;8.23;;;6.33;;
14306;SDS011;7237;49.500;11.400;2024-01-15T10:12:30;9.50;;;6.60;;
14306;SDS011;7237;49.500;11.400;2024-01-15T10:14:57;9.93;;;6.83;;
14306;SDS011;7237;49.500;11.400;2024-01-15T10:17:24;12.03;;;7.17;;
14306;SDS011;7237;49.500;11.400;2024-01-15T10:19:52;10.67;;;6.70;;
14306;SDS011;7237;49.500;11.400;2024-01-15T10:22:19;8.43;;;5.90;;
14306;SDS011;7237;49.500;11.400;2024-01-15T10:24:47;9.97;;;6.37;;
14306;SDS011;7237;49.500;11.400;2024-01-15T10:27:14;10.63;;;6.40;;
14306;SDS011;7237;49.500;11.400;2024-01-15T10:29:42;9.77;;;6.83;;
14306;SDS011;7237;49.500;11.400;2024-01-15T10:32:09;11.07;;;7.30;;
14306;SDS011;7237;49.500;11.400;2024-01-15T10:34:37;9.17;;;6.30;;
14306;SDS011;7237;49.500;11.400;2024-01-15T10:37:06;9.37;;;6.70;;
14306;SDS011;7237;49.500;11.400;2024-01-15T10:39:34;9.53;;;6.27;;
14306;SDS011;7237;49.500;11.400;2024-01-15T10:42:02;9.17;;;6.47;;
14306;SDS011;7237;49.500;11.400;2024-01-15T10:44:29;8.90;;;6.23;;
14306;SDS011;7237;49.500;11.400;2024-01-15T10:46:57;9.90;;;6.77;;
14306;SDS011;7237;49.500;11.400;2024-01-15T10:49:24;7.30;;;6.30;;
14306;SDS011;7237;49.500;11.400;2024-01-15T10:51:53;9.83;;;6.33;;
14306;SDS011;7237;49.500;11.400;2024-01-15T10:54:21;9.77;;;7.10;;
14306;SDS011;7237;49.500;11.400;2024-01-15T10:56:49;9.63;;;6.37;;
14306;SDS011;7237;49.500;11.400;2024-01-15T10:59:18;7.83;;;5.63;;
14306;SDS011;7237;49.500;11.400;2024-01-15T11:01:46;10.17;;;6.27;;
14306;SDS011;7237;49.500;11.400;2024-01-15T11:04:13;8.33;;;6.33;;
14306;SDS011;7237;49.500;11.400;2024-01-15T11:06:42;7.63;;;6.00;;
14306;SDS011;7237;49.500;11.400;2024-01-15T11:09:09;9.03;;;6.33;;
14306;SDS011;7237;49.500;11.400;2024-01-15T11:11:39;7.27;;;5.43;;
14306;SDS011;7237;49.500;11.400;2024-01-15T11:14:07;8.63;;;6.43;;
14306;SDS011;7237;49.500;11.400;2024-01-15T11:19:21;7.40;;;5.40;;
14306;SDS011;7237;49.500;11.400;2024-01-15T11:21:48;8.13;;;5.93;;
14306;SDS011;7237;49.500;11.400;2024-01-15T11:26:57;6.80;;;4.97;;
14306;SDS011;7237;49.500;11.400;2024-01-15T11:29:31;8.10;;;5.70;;
14306;SDS011;7237;49.500;11.400;2024-01-15T11:31:59;9.77;;;6.60;;
14306;SDS011;7237;49.500;11.400;2024-01-15T11:37:16;6.97;;;5.77;;
14306;SDS011;7237;49.500;11.400;2024-01-15T11:39:43;8.90;;;6.23;;
14306;SDS011;7237;49.500;11.400;2024-01-15T11:42:11;10.13;;;6.47;;
14306;SDS011;7237;49.500;11.400;2024-01-15T11:44:39;8.30;;;6.23;;
14306;SDS011;7237;49.500;11.400;2024-01-15T11:47:06;9.20;;;6.53;;
14306;SDS011;7237;49.500;11.400;2024-01-15T11:49:42;8.47;;;6.27;;
14306;SDS011;7237;49.500;11.400;2024-01-15T11:52:15;8.90;;;6.00;;
14306;SDS011;7237;49.500;11.400;2024-01-15T11:54:44;7.80;;;5.80;;
14306;SDS011;7237;49.500;11.400;2024-01-15T11:57:15;7.80;;;5.93;;
14306;SDS011;7237;49.500;11.400;2024-01-15T11:59:46;7.87;;;6.00;;
14306;SDS011;7237;49.500;11.400;2024-01-15T12:02:13;9.63;;;5.80;;
14306;SDS011;7237;49.500;11.400;2024-01-15T12:04:40;9.03;;;6.30;;
14306;SDS011;7237;49.500;11.400;2024-01-15T12:07:07;7.90;;;5.63;;
14306;SDS011;7237;49.500;11.400;2024-01-15T12:09:36;7.60;;;5.33;;
14306;SDS011;7237;49.500;11.400;2024-01-15T12:12:09;6.30;;;5.13;;
14306;SDS011;7237;49.500;11.400;2024-01-15T12:14:38;7.47;;;5.50;;
14306;SDS011;7237;49.500;11.400;2024-01-15T12:17:05;8.50;;;6.67;;
14306;SDS011;7237;49.500;11.400;2024-01-15T12:19:32;10.03;;;6.10;;
14306;SDS011;7237;49.500;11.400;2024-01-15T12:22:00;11.43;;;6.80;;
14306;SDS011;7237;49.500;11.400;2024-01-15T12:24:28;11.70;;;7.17;;
14306;SDS011;7237;49.500;11.400;2024-01-15T12:26:56;7.00;;;5.57;;
14306;SDS011;7237;49.500;11.400;2024-01-15T12:29:23;10.57;;;6.60;;
14306;SDS011;7237;49.500;11.400;2024-01-15T12:31:50;10.47;;;7.23;;
14306;SDS011;7237;49.500;11.400;2024-01-15T12:34:17;8.93;;;7.07;;
14306;SDS011;7237;49.500;11.400;2024-01-15T12:36:45;7.43;;;5.63;;
14306;SDS011;7237;49.500;11.400;2024-01-15T12:39:12;7.73;;;6.07;;
14306;SDS011;7237;49.500;11.400;2024-01-15T12:41:40;7.77;;;5.37;;
14306;SDS011;7237;49.500;11.400;2024-01-15T12:44:09;8.20;;;5.73;;
14306;SDS011;7237;49.500;11.400;2024-01-15T12:46:36;10.40;;;6.73;;
14306;SDS011;7237;49.500;11.400;2024-01-15T12:49:07;8.60;;;5.93;;
14306;SDS011;7237;49.500;11.400;2024-01-15T12:51:34;6.37;;;5.23;;
14306;SDS011;7237;49.500;11.400;2024-01-15T12:54:01;7.00;;;5.30;;
14306;SDS011;7237;49.500;11.400;2024-01-15T12:56:28;10.43;;;5.70;;
14306;SDS011;7237;49.500;11.400;2024-01-15T12:58:55;9.70;;;6.40;;
14306;SDS011;7237;49.500;11.400;2024-01-15T13:01:24;5.73;;;4.70;;
14306;SDS011;7237;49.500;11.400;2024-01-15T13:03:51;7.00;;;5.50;;
14306;SDS011;7237;49.500;11.400;2024-01-15T13:06:18;6.60;;;5.03;;
14306;SDS011;7237;49.500;11.400;2024-01-15T13:08:45;5.87;;;4.87;;
14306;SDS011;7237;49.500;11.400;2024-01-15T13:11:12;7.60;;;5.10;;
14306;SDS011;7237;49.500;11.400;2024-01-15T13:13:39;5.83;;;4.80;;
14306;SDS011;7237;49.500;11.400;2024-01-15T13:16:06;6.00;;;4.77;;
14306;SDS011;7237;49.500;11.400;2024-01-15T13:18:35;6.57;;;4.60;;
14306;SDS011;7237;49.500;11.400;2024-01-15T13:21:02;6.67;;;4.90;;
14306;SDS011;7237;49.500;11.400;2024-01-15T13:23:29;6.50;;;5.00;;
14306;SDS011;7237;49.500;11.400;2024-01-15T13:25:56;6.60;;;4.87;;
14306;SDS011;7237;49.500;11.400;2024-01-15T13:28:24;10.07;;;5.50;;
14306;SDS011;7237;49.500;11.400;2024-01-15T13:30:51;6.87;;;4.67;;
14306;SDS011;7237;49.500;11.400;2024-01-15T13:33:18;8.60;;;5.33;;
14306;SDS011;7237;49.500;11.400;2024-01-15T13:35:47;5.37;;;4.50;;
14306;SDS011;7237;49.500;11.400;2024-01-15T13:38:15;8.67;;;6.03;;
14306;SDS011;7237;49.500;11.400;2024-01-15T13:40:42;11.50;;;7.87;;
14306;SDS011;7237;49.500;11.400;2024-01-15T13:43:10;8.67;;;6.63;;
14306;SDS011;7237;49.500;11.400;2024-01-15T13:45:39;8.60;;;6.13;;
14306;SDS011;7237;49.500;11.400;2024-01-15T13:48:06;6.63;;;5.47;;
14306;SDS011;7237;49.500;11.400;2024-01-15T13:50:33;7.60;;;5.30;;
14306;SDS011;7237;49.500;11.400;2024-01-15T13:53:02;7.70;;;5.17;;
14306;SDS011;7237;49.500;11.400;2024-01-15T13:55:29;6.20;;;5.20;;
14306;SDS011;7237;49.500;11.400;2024-01-15T13:57:56;5.70;;;4.80;;
14306;SDS011;7237;49.500;11.400;2024-01-15T14:00:23;4.80;;;4.30;;
14306;SDS011;7237;49.500;11.400;2024-01-15T14:02:50;6.67;;;4.63;;
14306;SDS011;7237;49.500;11.400;2024-01-15T14:05:17;6.47;;;5.40;;
14306;SDS011;7237;49.500;11.400;2024-01-15T14:07:45;5.97;;;4.73;;
14306;SDS011;7237;49.500;11.400;2024-01-15T14:10:13;6.23;;;5.40;;
14306;SDS011;7237;49.500;11.400;2024-01-15T14:12:41;8.43;;;5.27;;
14306;SDS011;7237;49.500;11.400;2024-01-15T14:15:08;5.70;;;5.13;;
14306;SDS011;7237;49.500;11.400;2024-01-15T14:17:35;7.33;;;5.47;;
14306;SDS011;7237;49.500;11.400;2024-01-15T14:20:02;6.00;;;4.47;;
14306;SDS011;7237;49.500;11.400;2024-01-15T14:22:30;8.30;;;4.77;;
14306;SDS011;7237;49.500;11.400;2024-01-15T14:24:57;5.17;;;4.67;;
14306;SDS011;7237;49.500;11.400;2024-01-15T14:27:25;7.13;;;4.60;;
14306;SDS011;7237;49.500;11.400;2024-01-15T14:29:52;7.73;;;4.60;;
14306;SDS011;7237;49.500;11.400;2024-01-15T14:32:19;7.77;;;4.77;;
14306;SDS011;7237;49.500;11.400;2024-01-15T14:34:46;5.90;;;4.30;;
14306;SDS011;7237;49.500;11.400;2024-01-15T14:37:14;5.17;;;4.00;;
14306;SDS011;7237;49.500;11.400;2024-01-15T14:39:41;5.20;;;4.43;;
14306;SDS011;7237;49.500;11.400;2024-01-15T14:42:08;5.13;;;4.60;;
14306;SDS011;7237;49.500;11.400;2024-01-15T14:44:37;6.30;;;3.93;;